createdAt,value
2023-03-20T00:01:55.211Z,11.47
2023-03-20T00:04:57.968Z,12.70
2023-03-20T00:08:00.808Z,10.97
2023-03-20T00:11:03.605Z,10.33
2023-03-20T00:14:10.872Z,6.97
2023-03-20T00:17:20.191Z,9.23
2023-03-20T00:20:23.888Z,9.30
2023-03-20T00:23:27.135Z,8.03
2023-03-20T00:26:35.380Z,6.43
2023-03-20T00:29:39.580Z,6.27
2023-03-20T00:32:42.312Z,8.57
2023-03-20T00:35:45.098Z,7.10
2023-03-20T00:38:47.884Z,9.53
2023-03-20T00:41:53.895Z,11.20
2023-03-20T00:44:59.599Z,7.03
2023-03-20T00:48:03.524Z,8.07
2023-03-20T00:51:06.548Z,7.47
2023-03-20T00:54:15.503Z,8.10
2023-03-20T00:57:22.665Z,7.57
2023-03-20T01:00:47.896Z,8.57
2023-03-20T01:04:02.265Z,7.07
2023-03-20T01:07:08.264Z,13.10
2023-03-20T01:10:17.793Z,8.00
2023-03-20T01:13:23.600Z,10.77
2023-03-20T01:16:33.597Z,9.93
2023-03-20T01:19:36.526Z,9.90
2023-03-20T01:22:39.206Z,9.93
2023-03-20T01:25:42.950Z,12.03
2023-03-20T01:28:46.050Z,10.87
2023-03-20T01:31:53.620Z,9.57
2023-03-20T01:34:56.356Z,13.73
2023-03-20T01:38:01.947Z,8.63
2023-03-20T01:41:08.841Z,11.20
2023-03-20T01:44:20.585Z,10.70
2023-03-20T01:47:27.869Z,12.50
2023-03-20T01:50:32.794Z,11.67
2023-03-20T01:53:35.754Z,11.27
2023-03-20T01:56:42.738Z,11.50
2023-03-20T01:59:50.330Z,9.77
2023-03-20T02:02:54.934Z,9.30
2023-03-20T02:05:58.493Z,10.17
2023-03-20T02:09:01.761Z,9.07
2023-03-20T02:12:05.968Z,10.40
2023-03-20T02:15:10.883Z,13.20
2023-03-20T02:18:15.018Z,9.23
2023-03-20T02:21:54.622Z,15.90
2023-03-20T02:25:35.848Z,18.50
2023-03-20T02:29:01.094Z,12.97
2023-03-20T02:32:42.315Z,14.90
2023-03-20T02:36:13.348Z,14.40
2023-03-20T02:39:56.750Z,12.10
2023-03-20T02:43:09.978Z,14.37
2023-03-20T02:46:21.731Z,12.23
2023-03-20T02:49:50.577Z,14.70
2023-03-20T02:53:01.562Z,16.00
2023-03-20T02:56:13.823Z,11.43
2023-03-20T02:59:26.858Z,17.40
2023-03-20T03:02:36.808Z,9.97
2023-03-20T03:05:44.948Z,13.83
2023-03-20T03:09:00.098Z,12.23
2023-03-20T03:12:12.278Z,8.60
2023-03-20T03:15:27.077Z,7.47
2023-03-20T03:18:32.319Z,12.20
2023-03-20T03:21:38.388Z,14.80
2023-03-20T03:24:45.666Z,12.97
2023-03-20T03:27:55.281Z,12.53
2023-03-20T03:31:00.152Z,12.40
2023-03-20T03:34:03.808Z,12.73
2023-03-20T03:37:13.987Z,12.63
2023-03-20T03:40:22.968Z,8.93
2023-03-20T03:43:32.278Z,10.63
2023-03-20T03:46:41.803Z,10.63
2023-03-20T03:49:51.981Z,10.57
2023-03-20T03:52:59.711Z,9.93
2023-03-20T03:56:05.445Z,11.03
2023-03-20T03:59:15.985Z,13.77
2023-03-20T04:02:21.424Z,13.00
2023-03-20T04:05:48.671Z,14.90
2023-03-20T04:08:51.869Z,11.03
2023-03-20T04:11:57.676Z,12.23
2023-03-20T04:15:05.570Z,12.03
2023-03-20T04:18:08.294Z,14.63
2023-03-20T04:21:13.170Z,14.30
2023-03-20T04:24:18.593Z,12.40
2023-03-20T04:27:35.291Z,11.70
2023-03-20T04:30:39.333Z,15.13
2023-03-20T04:33:42.050Z,10.93
2023-03-20T04:36:45.576Z,19.57
2023-03-20T04:39:48.425Z,15.43
2023-03-20T04:43:04.392Z,14.57
2023-03-20T04:46:09.296Z,14.30
2023-03-20T04:49:12.046Z,13.33
2023-03-20T04:52:16.929Z,11.70
2023-03-20T04:55:19.722Z,10.63
2023-03-20T04:58:31.799Z,14.23
2023-03-20T05:01:38.291Z,12.37
2023-03-20T05:04:42.716Z,18.97
2023-03-20T05:07:45.531Z,18.50
2023-03-20T05:10:48.803Z,17.63
2023-03-20T05:13:56.427Z,17.70
2023-03-20T05:17:01.333Z,21.37
2023-03-20T05:20:05.214Z,15.07
2023-03-20T05:23:11.809Z,15.73
2023-03-20T05:26:14.483Z,15.83
2023-03-20T05:29:17.147Z,15.03
2023-03-20T05:32:24.185Z,13.00
2023-03-20T05:35:26.987Z,10.07
2023-03-20T05:38:34.814Z,17.77
2023-03-20T05:41:37.868Z,11.77
2023-03-20T05:44:41.117Z,12.27
2023-03-20T05:47:47.747Z,14.43
2023-03-20T05:50:50.440Z,11.27
2023-03-20T05:53:53.091Z,15.37
2023-03-20T05:56:58.913Z,16.63
2023-03-20T06:00:01.764Z,17.97
2023-03-20T06:03:07.309Z,13.97
2023-03-20T06:06:10.515Z,22.03
2023-03-20T06:09:14.307Z,27.57
2023-03-20T06:12:17.203Z,26.10
2023-03-20T06:15:25.329Z,16.57
2023-03-20T06:18:29.477Z,19.20
2023-03-20T06:21:32.143Z,15.43
2023-03-20T06:24:35.460Z,16.60
2023-03-20T06:27:41.159Z,10.17
2023-03-20T06:30:46.284Z,11.77
2023-03-20T06:33:50.863Z,12.47
2023-03-20T06:36:53.503Z,13.40
2023-03-20T06:39:56.470Z,14.90
2023-03-20T06:42:59.143Z,16.00
2023-03-20T06:46:02.046Z,12.80
2023-03-20T06:49:06.336Z,14.13
2023-03-20T06:52:09.737Z,13.03
2023-03-20T06:55:19.930Z,17.47
2023-03-20T06:58:25.889Z,16.47
2023-03-20T07:01:34.526Z,17.27
2023-03-20T07:04:38.903Z,13.33
2023-03-20T07:07:42.974Z,11.53
2023-03-20T07:10:51.828Z,10.83
2023-03-20T07:13:54.611Z,12.77
2023-03-20T07:16:57.495Z,16.00
2023-03-20T07:20:02.291Z,16.40
2023-03-20T07:23:08.512Z,16.70
2023-03-20T07:26:11.323Z,19.40
2023-03-20T07:29:17.066Z,30.57
2023-03-20T07:32:20.766Z,21.10
2023-03-20T07:35:25.716Z,20.97
2023-03-20T07:38:33.406Z,23.83
2023-03-20T07:41:41.424Z,21.67
2023-03-20T07:44:44.933Z,19.97
2023-03-20T07:47:50.747Z,22.40
2023-03-20T07:50:54.764Z,20.57
2023-03-20T07:54:09.523Z,20.10
2023-03-20T07:57:14.378Z,23.07
2023-03-20T08:00:23.535Z,21.17
2023-03-20T08:03:28.150Z,20.40
2023-03-20T08:06:44.633Z,22.03
2023-03-20T08:10:01.874Z,24.83
2023-03-20T08:13:10.546Z,22.20
2023-03-20T08:16:13.297Z,24.30
2023-03-20T08:19:15.990Z,24.87
2023-03-20T08:22:20.076Z,26.60
2023-03-20T08:25:25.920Z,22.60
2023-03-20T08:28:45.774Z,23.80
2023-03-20T08:31:49.562Z,23.17
2023-03-20T08:34:55.013Z,23.77
2023-03-20T08:37:59.067Z,22.23
2023-03-20T08:41:09.524Z,22.77
2023-03-20T08:44:12.399Z,24.30
2023-03-20T08:47:15.113Z,26.33
2023-03-20T08:50:18.193Z,22.63
2023-03-20T08:53:22.366Z,25.27
2023-03-20T08:56:25.188Z,22.30
2023-03-20T08:59:31.329Z,25.40
2023-03-20T09:02:34.514Z,23.63
2023-03-20T09:05:37.909Z,30.27
2023-03-20T09:08:46.180Z,33.10
2023-03-20T09:11:48.851Z,24.97
2023-03-20T09:14:51.853Z,22.70
2023-03-20T09:17:54.543Z,26.93
2023-03-20T09:20:57.519Z,24.27
2023-03-20T09:24:04.892Z,24.13
2023-03-20T09:27:07.710Z,22.13
2023-03-20T09:30:14.576Z,22.63
2023-03-20T09:33:18.896Z,18.10
2023-03-20T09:36:33.933Z,19.77
2023-03-20T09:39:38.019Z,23.10
2023-03-20T09:42:47.959Z,19.43
2023-03-20T09:46:03.241Z,19.43
2023-03-20T09:49:27.555Z,17.00
2023-03-20T09:52:33.680Z,21.87
2023-03-20T09:55:40.455Z,15.63
2023-03-20T09:58:45.319Z,19.23
2023-03-20T10:02:00.330Z,17.73
2023-03-20T10:05:05.923Z,18.53
2023-03-20T10:08:16.855Z,18.20
2023-03-20T10:11:56.330Z,16.63
2023-03-20T10:15:09.857Z,16.33
2023-03-20T10:18:27.592Z,18.37
2023-03-20T10:21:43.366Z,13.53
2023-03-20T10:24:49.595Z,16.90
2023-03-20T10:28:06.997Z,26.23
2023-03-20T10:31:23.350Z,14.27
2023-03-20T10:34:42.608Z,13.77
2023-03-20T10:38:00.354Z,14.53
2023-03-20T10:41:05.442Z,14.83
2023-03-20T10:44:17.532Z,14.60
2023-03-20T10:47:29.681Z,20.60
2023-03-20T10:50:41.159Z,13.83
2023-03-20T10:53:49.904Z,13.63
2023-03-20T10:57:23.236Z,16.67
2023-03-20T11:00:34.153Z,13.60
2023-03-20T11:03:39.746Z,12.60
2023-03-20T11:06:51.530Z,13.80
2023-03-20T11:10:10.496Z,12.77
2023-03-20T11:13:26.482Z,11.53
2023-03-20T11:16:36.822Z,14.20
2023-03-20T11:19:43.282Z,11.60
2023-03-20T11:22:49.009Z,12.30
2023-03-20T11:25:54.369Z,12.63
2023-03-20T11:29:01.639Z,12.87
2023-03-20T11:32:08.616Z,13.63
2023-03-20T11:35:19.198Z,15.93
2023-03-20T11:38:30.429Z,11.90
2023-03-20T11:41:40.943Z,15.93
2023-03-20T11:44:58.283Z,38.37
2023-03-20T11:48:04.082Z,16.63
2023-03-20T11:51:10.260Z,17.90
2023-03-20T11:54:18.490Z,13.33
2023-03-20T11:57:33.093Z,17.07
2023-03-20T12:00:40.777Z,12.70
2023-03-20T12:03:52.049Z,32.17
2023-03-20T12:07:03.762Z,13.23
2023-03-20T12:10:11.851Z,12.50
2023-03-20T12:13:26.193Z,9.47
2023-03-20T12:16:30.911Z,11.63
2023-03-20T12:19:36.412Z,13.20
2023-03-20T12:22:44.498Z,10.37
2023-03-20T12:26:01.048Z,10.40
2023-03-20T12:29:08.950Z,8.67
2023-03-20T12:32:18.307Z,8.07
2023-03-20T12:35:27.461Z,8.60
2023-03-20T12:38:32.713Z,12.13
2023-03-20T12:41:43.480Z,7.90
2023-03-20T12:44:54.199Z,9.07
2023-03-20T12:48:10.943Z,7.90
2023-03-20T12:51:24.409Z,10.53
2023-03-20T12:54:41.514Z,9.57
2023-03-20T12:57:56.709Z,8.53
2023-03-20T13:01:05.417Z,8.10
2023-03-20T13:04:28.239Z,11.37
2023-03-20T13:07:45.752Z,7.47
2023-03-20T13:10:57.597Z,10.43
2023-03-20T13:14:06.263Z,10.93
2023-03-20T13:17:19.336Z,8.53
2023-03-20T13:20:27.063Z,8.93
2023-03-20T13:23:38.281Z,9.10
2023-03-20T13:26:46.808Z,17.30
2023-03-20T13:29:57.511Z,6.43
2023-03-20T13:33:10.630Z,7.20
2023-03-20T13:36:25.417Z,9.40
2023-03-20T13:39:34.690Z,10.50
2023-03-20T13:42:41.952Z,9.10
2023-03-20T13:45:44.739Z,9.00
2023-03-20T13:48:48.219Z,11.60
2023-03-20T13:51:57.910Z,8.10
2023-03-20T13:55:23.631Z,8.80
2023-03-20T13:58:40.928Z,6.70
2023-03-20T14:01:56.189Z,11.40
2023-03-20T14:05:05.834Z,8.10
2023-03-20T14:08:33.197Z,7.33
2023-03-20T14:11:39.009Z,9.57
2023-03-20T14:14:44.202Z,5.90
2023-03-20T14:17:49.044Z,9.40
2023-03-20T14:20:58.162Z,7.93
2023-03-20T14:24:05.614Z,7.07
2023-03-20T14:27:29.821Z,6.03
2023-03-20T14:30:44.721Z,8.30
2023-03-20T14:33:58.704Z,5.77
2023-03-20T14:37:04.843Z,6.03
2023-03-20T14:40:20.127Z,6.20
2023-03-20T14:43:56.894Z,5.87
2023-03-20T14:47:06.394Z,6.23
2023-03-20T14:50:19.113Z,6.80
2023-03-20T14:53:24.822Z,7.60
2023-03-20T14:56:32.390Z,6.00
2023-03-20T14:59:36.634Z,5.17
2023-03-20T15:02:39.366Z,5.93
2023-03-20T15:05:42.627Z,7.07
2023-03-20T15:08:48.503Z,6.17
2023-03-20T15:11:52.618Z,5.13
2023-03-20T15:14:58.493Z,5.43
2023-03-20T15:18:05.793Z,7.40
2023-03-20T15:21:16.543Z,5.97
2023-03-20T15:24:23.020Z,9.37
2023-03-20T15:27:29.608Z,8.27
2023-03-20T15:30:37.625Z,5.87
2023-03-20T15:33:43.729Z,7.57
2023-03-20T15:36:46.613Z,12.33
2023-03-20T15:39:52.139Z,4.87
2023-03-20T15:43:02.276Z,8.17
2023-03-20T15:46:18.072Z,9.00
2023-03-20T15:49:22.989Z,5.50
2023-03-20T15:52:30.743Z,7.20
2023-03-20T15:55:33.945Z,3.70
2023-03-20T15:58:37.560Z,3.97
2023-03-20T16:01:41.921Z,4.40
2023-03-20T16:04:47.886Z,4.93
2023-03-20T16:07:50.525Z,6.07
2023-03-20T16:10:57.864Z,4.47
2023-03-20T16:14:00.738Z,4.70
2023-03-20T16:17:06.161Z,8.00
2023-03-20T16:20:15.791Z,8.00
2023-03-20T16:23:33.522Z,7.00
2023-03-20T16:26:46.797Z,4.20
2023-03-20T16:29:52.410Z,4.03
2023-03-20T16:33:00.758Z,7.20
2023-03-20T16:36:05.228Z,3.03
2023-03-20T16:39:10.668Z,5.37
2023-03-20T16:42:24.531Z,4.97
2023-03-20T16:45:31.278Z,5.87
2023-03-20T16:48:37.729Z,5.67
2023-03-20T16:51:43.932Z,4.67
2023-03-20T16:54:48.819Z,5.30
2023-03-20T16:57:55.906Z,3.80
2023-03-20T17:01:07.103Z,7.57
2023-03-20T17:04:19.895Z,5.60
2023-03-20T17:07:30.790Z,12.00
2023-03-20T17:10:33.430Z,9.10
2023-03-20T17:13:36.307Z,6.60
2023-03-20T17:16:40.314Z,15.50
2023-03-20T17:19:44.737Z,26.93
2023-03-20T17:22:47.768Z,7.00
2023-03-20T17:25:51.972Z,6.47
2023-03-20T17:28:55.567Z,5.13
2023-03-20T17:31:58.359Z,7.07
2023-03-20T17:35:02.613Z,8.97
2023-03-20T17:38:05.367Z,4.47
2023-03-20T17:41:13.843Z,5.27
2023-03-20T17:44:16.637Z,6.30
2023-03-20T17:47:20.976Z,9.87
2023-03-20T17:50:27.268Z,6.50
2023-03-20T17:53:31.359Z,4.20
2023-03-20T17:56:34.119Z,9.20
2023-03-20T17:59:37.389Z,13.67
2023-03-20T18:02:40.139Z,6.97
2023-03-20T18:05:44.205Z,3.23
2023-03-20T18:08:46.851Z,5.63
2023-03-20T18:11:49.965Z,7.80
2023-03-20T18:14:52.647Z,5.53
2023-03-20T18:17:55.589Z,5.97
2023-03-20T18:21:00.010Z,5.03
2023-03-20T18:24:03.430Z,4.60
2023-03-20T18:27:06.739Z,3.90
2023-03-20T18:30:16.504Z,5.63
2023-03-20T18:33:19.514Z,6.53
2023-03-20T18:36:25.381Z,5.33
2023-03-20T18:39:28.531Z,6.20
2023-03-20T18:42:31.264Z,4.87
2023-03-20T18:45:38.790Z,4.33
2023-03-20T18:48:42.254Z,4.60
2023-03-20T18:51:47.029Z,5.70
2023-03-20T18:54:49.834Z,10.73
2023-03-20T18:57:52.938Z,4.40
2023-03-20T19:00:57.035Z,7.53
2023-03-20T19:03:59.810Z,4.83
2023-03-20T19:07:03.931Z,5.67
2023-03-20T19:10:07.553Z,4.77
2023-03-20T19:13:13.536Z,3.77
2023-03-20T19:16:23.318Z,7.03
2023-03-20T19:19:26.116Z,7.30
2023-03-20T19:22:30.200Z,4.57
2023-03-20T19:25:33.194Z,3.90
2023-03-20T19:28:40.908Z,5.13
2023-03-20T19:31:44.058Z,4.47
2023-03-20T19:35:35.139Z,6.73
2023-03-20T19:38:14.153Z,8.63
2023-03-20T19:41:16.869Z,4.77
2023-03-20T19:44:19.780Z,4.87
2023-03-20T19:47:22.532Z,5.53
2023-03-20T19:50:30.319Z,9.60
2023-03-20T19:53:34.398Z,5.77
2023-03-20T19:56:37.061Z,5.70
2023-03-20T19:59:43.915Z,14.40
2023-03-20T20:02:47.592Z,11.10
2023-03-20T20:05:51.464Z,18.00
2023-03-20T20:08:55.465Z,11.90
2023-03-20T20:11:58.932Z,22.17
2023-03-20T20:15:01.571Z,8.03
2023-03-20T20:18:04.289Z,9.07
2023-03-20T20:24:32.181Z,9.93
2023-03-20T20:27:35.119Z,10.70
2023-03-20T20:30:39.147Z,5.27
2023-03-20T20:34:02.205Z,6.77
2023-03-20T20:38:09.099Z,5.80
2023-03-20T20:40:47.130Z,5.10
2023-03-20T20:44:14.470Z,4.83
2023-03-20T20:47:13.159Z,7.37
2023-03-20T20:50:18.240Z,5.43
2023-03-20T20:53:21.532Z,5.20
2023-03-20T20:56:26.092Z,5.37
2023-03-20T20:59:43.145Z,7.00
2023-03-20T21:02:45.856Z,8.40
2023-03-20T21:05:48.601Z,8.03
2023-03-20T21:08:51.264Z,7.23
2023-03-20T21:11:55.747Z,4.13
2023-03-20T21:14:58.858Z,6.07
2023-03-20T21:18:02.139Z,7.73
2023-03-20T21:21:05.898Z,5.40
2023-03-20T21:24:30.574Z,8.73
2023-03-20T21:27:38.230Z,8.37
2023-03-20T21:30:54.560Z,8.07
2023-03-20T21:34:05.274Z,5.03
2023-03-20T21:38:15.833Z,8.73
2023-03-20T21:40:32.161Z,10.00
2023-03-20T21:43:36.280Z,8.57
2023-03-20T21:54:24.388Z,12.67
2023-03-20T22:04:26.957Z,18.17
2023-03-20T22:14:41.010Z,15.20
2023-03-20T22:17:51.365Z,15.27
2023-03-20T22:24:51.908Z,8.70
2023-03-20T22:28:02.539Z,6.77
2023-03-20T22:31:34.524Z,8.83
2023-03-20T22:35:30.904Z,12.73
2023-03-20T22:45:01.725Z,7.47
2023-03-20T22:48:06.191Z,8.97
2023-03-20T22:51:10.721Z,11.67
2023-03-20T22:54:13.623Z,11.23
2023-03-20T22:57:16.565Z,13.70
2023-03-20T23:00:19.619Z,14.17
2023-03-20T23:03:39.923Z,11.67
2023-03-20T23:06:45.291Z,11.40
2023-03-20T23:09:54.037Z,13.03
2023-03-20T23:12:56.718Z,12.33
2023-03-20T23:15:59.474Z,14.13
2023-03-20T23:19:02.371Z,11.17
2023-03-20T23:22:06.346Z,8.73
2023-03-20T23:25:20.968Z,8.60
2023-03-20T23:28:37.582Z,10.37
2023-03-20T23:31:40.438Z,14.20
2023-03-20T23:34:45.280Z,10.33
2023-03-20T23:37:58.660Z,10.63
2023-03-20T23:41:01.977Z,8.77
2023-03-20T23:44:05.055Z,8.23
2023-03-20T23:47:17.964Z,6.83
2023-03-20T23:50:42.590Z,8.97
2023-03-20T23:53:47.174Z,10.07
2023-03-20T23:56:52.119Z,11.57
2023-03-20T23:59:54.822Z,7.07
